sensor_id;sensor_type;location;lat;lon;timestamp;temperature;humidity
14475;DHT22;7323;50.848;4.334;2023-05-24T00:01:35;11.00;41.50
14475;DHT22;7323;50.848;4.334;2023-05-24T00:04:02;11.10;41.00
14475;DHT22;7323;50.848;4.334;2023-05-24T00:06:28;11.00;39.80
14475;DHT22;7323;50.848;4.334;2023-05-24T00:08:54;11.00;40.00
14475;DHT22;7323;50.848;4.334;2023-05-24T00:11:20;10.90;42.10
14475;DHT22;7323;50.848;4.334;2023-05-24T00:13:46;11.10;44.90
14475;DHT22;7323;50.848;4.334;2023-05-24T00:16:12;10.90;45.30
14475;DHT22;7323;50.848;4.334;2023-05-24T00:18:38;10.90;45.00
14475;DHT22;7323;50.848;4.334;2023-05-24T00:21:09;10.90;45.00
14475;DHT22;7323;50.848;4.334;2023-05-24T00:23:35;11.00;45.20
14475;DHT22;7323;50.848;4.334;2023-05-24T00:26:02;10.90;46.30
14475;DHT22;7323;50.848;4.334;2023-05-24T00:28:28;10.90;45.20
14475;DHT22;7323;50.848;4.334;2023-05-24T00:30:56;10.90;47.70
14475;DHT22;7323;50.848;4.334;2023-05-24T00:33:22;11.00;49.90
14475;DHT22;7323;50.848;4.334;2023-05-24T00:35:49;10.90;48.50
14475;DHT22;7323;50.848;4.334;2023-05-24T00:38:19;11.00;46.60
14475;DHT22;7323;50.848;4.334;2023-05-24T00:40:44;10.90;44.70
14475;DHT22;7323;50.848;4.334;2023-05-24T00:43:11;10.80;47.60
14475;DHT22;7323;50.848;4.334;2023-05-24T00:45:37;10.90;50.20
14475;DHT22;7323;50.848;4.334;2023-05-24T00:48:03;10.90;50.30
14475;DHT22;7323;50.848;4.334;2023-05-24T00:50:28;10.80;48.60
14475;DHT22;7323;50.848;4.334;2023-05-24T00:52:55;10.80;51.40
14475;DHT22;7323;50.848;4.334;2023-05-24T00:55:23;10.80;51.10
14475;DHT22;7323;50.848;4.334;2023-05-24T00:57:50;10.70;51.50
14475;DHT22;7323;50.848;4.334;2023-05-24T01:00:17;10.70;53.80
14475;DHT22;7323;50.848;4.334;2023-05-24T01:02:43;10.60;54.20
14475;DHT22;7323;50.848;4.334;2023-05-24T01:05:08;10.50;56.40
14475;DHT22;7323;50.848;4.334;2023-05-24T01:16:46;10.50;59.30
14475;DHT22;7323;50.848;4.334;2023-05-24T01:22:10;10.50;65.30
14475;DHT22;7323;50.848;4.334;2023-05-24T01:24:58;10.50;64.10
14475;DHT22;7323;50.848;4.334;2023-05-24T01:27:29;10.50;64.00
14475;DHT22;7323;50.848;4.334;2023-05-24T01:29:59;10.50;63.00
14475;DHT22;7323;50.848;4.334;2023-05-24T01:32:25;10.40;63.30
14475;DHT22;7323;50.848;4.334;2023-05-24T01:34:51;10.50;63.20
14475;DHT22;7323;50.848;4.334;2023-05-24T01:37:17;10.60;61.10
14475;DHT22;7323;50.848;4.334;2023-05-24T01:39:43;10.50;59.30
14475;DHT22;7323;50.848;4.334;2023-05-24T01:45:12;10.40;61.70
14475;DHT22;7323;50.848;4.334;2023-05-24T01:48:11;10.40;65.30
14475;DHT22;7323;50.848;4.334;2023-05-24T01:50:59;10.30;63.50
14475;DHT22;7323;50.848;4.334;2023-05-24T01:53:40;10.30;67.70
14475;DHT22;7323;50.848;4.334;2023-05-24T01:56:06;10.30;66.90
14475;DHT22;7323;50.848;4.334;2023-05-24T01:58:34;10.20;68.00
14475;DHT22;7323;50.848;4.334;2023-05-24T02:01:01;10.30;68.90
14475;DHT22;7323;50.848;4.334;2023-05-24T02:03:27;10.30;68.70
14475;DHT22;7323;50.848;4.334;2023-05-24T02:05:53;10.30;68.00
14475;DHT22;7323;50.848;4.334;2023-05-24T02:08:18;10.20;68.90
14475;DHT22;7323;50.848;4.334;2023-05-24T02:10:44;10.20;72.10
14475;DHT22;7323;50.848;4.334;2023-05-24T02:13:09;10.30;70.70
14475;DHT22;7323;50.848;4.334;2023-05-24T02:15:35;10.20;70.60
14475;DHT22;7323;50.848;4.334;2023-05-24T02:18:01;10.40;70.20
14475;DHT22;7323;50.848;4.334;2023-05-24T02:20:27;10.20;71.00
14475;DHT22;7323;50.848;4.334;2023-05-24T02:22:57;10.20;71.50
14475;DHT22;7323;50.848;4.334;2023-05-24T02:25:23;10.10;74.30
14475;DHT22;7323;50.848;4.334;2023-05-24T02:27:48;10.10;75.70
14475;DHT22;7323;50.848;4.334;2023-05-24T02:30:14;10.10;78.40
14475;DHT22;7323;50.848;4.334;2023-05-24T02:32:40;10.20;78.60
14475;DHT22;7323;50.848;4.334;2023-05-24T02:35:06;10.20;78.10
14475;DHT22;7323;50.848;4.334;2023-05-24T02:37:32;10.20;75.80
14475;DHT22;7323;50.848;4.334;2023-05-24T02:39:58;10.30;76.30
14475;DHT22;7323;50.848;4.334;2023-05-24T02:42:23;10.20;74.90
14475;DHT22;7323;50.848;4.334;2023-05-24T02:44:49;10.30;75.70
14475;DHT22;7323;50.848;4.334;2023-05-24T02:47:18;10.40;72.40
14475;DHT22;7323;50.848;4.334;2023-05-24T02:49:44;10.30;67.60
14475;DHT22;7323;50.848;4.334;2023-05-24T02:52:09;10.30;71.30
14475;DHT22;7323;50.848;4.334;2023-05-24T02:54:35;10.30;72.70
14475;DHT22;7323;50.848;4.334;2023-05-24T02:57:01;10.30;70.10
14475;DHT22;7323;50.848;4.334;2023-05-24T02:59:27;10.30;71.70
14475;DHT22;7323;50.848;4.334;2023-05-24T03:01:54;10.30;72.40
14475;DHT22;7323;50.848;4.334;2023-05-24T03:04:19;10.20;73.80
14475;DHT22;7323;50.848;4.334;2023-05-24T03:06:45;10.20;74.90
14475;DHT22;7323;50.848;4.334;2023-05-24T03:09:11;10.20;74.80
14475;DHT22;7323;50.848;4.334;2023-05-24T03:11:37;10.30;72.40
14475;DHT22;7323;50.848;4.334;2023-05-24T03:14:03;10.30;73.80
14475;DHT22;7323;50.848;4.334;2023-05-24T03:16:30;10.50;71.40
14475;DHT22;7323;50.848;4.334;2023-05-24T03:18:56;10.30;72.00
14475;DHT22;7323;50.848;4.334;2023-05-24T03:21:24;10.30;73.20
14475;DHT22;7323;50.848;4.334;2023-05-24T03:23:50;10.30;71.00
14475;DHT22;7323;50.848;4.334;2023-05-24T03:26:16;10.30;69.90
14475;DHT22;7323;50.848;4.334;2023-05-24T03:28:43;10.30;68.70
14475;DHT22;7323;50.848;4.334;2023-05-24T03:31:09;10.10;72.10
14475;DHT22;7323;50.848;4.334;2023-05-24T03:33:36;10.10;75.70
14475;DHT22;7323;50.848;4.334;2023-05-24T03:36:02;10.20;77.50
14475;DHT22;7323;50.848;4.334;2023-05-24T03:38:28;9.90;79.20
14475;DHT22;7323;50.848;4.334;2023-05-24T03:40:54;10.10;82.10
14475;DHT22;7323;50.848;4.334;2023-05-24T03:43:20;10.10;80.30
14475;DHT22;7323;50.848;4.334;2023-05-24T03:45:46;10.10;79.40
14475;DHT22;7323;50.848;4.334;2023-05-24T03:48:12;10.10;80.10
14475;DHT22;7323;50.848;4.334;2023-05-24T03:50:38;10.20;80.30
14475;DHT22;7323;50.848;4.334;2023-05-24T03:53:04;10.40;76.50
14475;DHT22;7323;50.848;4.334;2023-05-24T03:55:29;10.40;71.30
14475;DHT22;7323;50.848;4.334;2023-05-24T03:57:55;10.60;68.10
14475;DHT22;7323;50.848;4.334;2023-05-24T04:00:22;10.60;61.40
14475;DHT22;7323;50.848;4.334;2023-05-24T04:02:47;10.50;63.50
14475;DHT22;7323;50.848;4.334;2023-05-24T04:05:14;10.40;67.00
14475;DHT22;7323;50.848;4.334;2023-05-24T04:07:40;10.60;66.10
14475;DHT22;7323;50.848;4.334;2023-05-24T04:10:06;10.50;64.50
14475;DHT22;7323;50.848;4.334;2023-05-24T04:12:33;10.50;61.30
14475;DHT22;7323;50.848;4.334;2023-05-24T04:14:59;10.60;61.70
14475;DHT22;7323;50.848;4.334;2023-05-24T04:17:26;10.50;63.70
14475;DHT22;7323;50.848;4.334;2023-05-24T04:19:52;10.50;65.30
14475;DHT22;7323;50.848;4.334;2023-05-24T04:22:18;10.70;63.50
14475;DHT22;7323;50.848;4.334;2023-05-24T04:24:44;10.90;58.10
14475;DHT22;7323;50.848;4.334;2023-05-24T04:27:16;10.80;55.40
14475;DHT22;7323;50.848;4.334;2023-05-24T04:29:59;10.80;56.80
14475;DHT22;7323;50.848;4.334;2023-05-24T04:32:31;11.10;50.90
14475;DHT22;7323;50.848;4.334;2023-05-24T04:35:01;11.20;41.90
14475;DHT22;7323;50.848;4.334;2023-05-24T04:37:27;11.40;37.40
14475;DHT22;7323;50.848;4.334;2023-05-24T04:39:54;11.20;36.80
14475;DHT22;7323;50.848;4.334;2023-05-24T04:42:20;11.30;34.40
14475;DHT22;7323;50.848;4.334;2023-05-24T04:44:46;11.50;32.40
14475;DHT22;7323;50.848;4.334;2023-05-24T04:47:12;11.40;29.40
14475;DHT22;7323;50.848;4.334;2023-05-24T04:49:38;11.10;38.30
14475;DHT22;7323;50.848;4.334;2023-05-24T04:52:04;11.10;46.20
14475;DHT22;7323;50.848;4.334;2023-05-24T04:54:36;11.20;41.80
14475;DHT22;7323;50.848;4.334;2023-05-24T04:57:02;11.40;33.90
14475;DHT22;7323;50.848;4.334;2023-05-24T04:59:28;11.40;30.80
14475;DHT22;7323;50.848;4.334;2023-05-24T05:01:53;11.60;32.00
14475;DHT22;7323;50.848;4.334;2023-05-24T05:04:19;11.50;30.90
14475;DHT22;7323;50.848;4.334;2023-05-24T05:06:45;11.40;34.90
14475;DHT22;7323;50.848;4.334;2023-05-24T05:09:12;11.40;35.90
14475;DHT22;7323;50.848;4.334;2023-05-24T05:11:39;11.50;40.20
14475;DHT22;7323;50.848;4.334;2023-05-24T05:14:05;11.60;38.40
14475;DHT22;7323;50.848;4.334;2023-05-24T05:16:34;11.60;34.70
14475;DHT22;7323;50.848;4.334;2023-05-24T05:19:01;11.90;31.00
14475;DHT22;7323;50.848;4.334;2023-05-24T05:21:29;12.10;24.00
14475;DHT22;7323;50.848;4.334;2023-05-24T05:23:58;12.00;20.90
14475;DHT22;7323;50.848;4.334;2023-05-24T05:26:26;12.20;21.00
14475;DHT22;7323;50.848;4.334;2023-05-24T05:28:52;12.40;13.80
14475;DHT22;7323;50.848;4.334;2023-05-24T05:31:19;12.50;4.30
14475;DHT22;7323;50.848;4.334;2023-05-24T05:33:45;12.60;2.00
14475;DHT22;7323;50.848;4.334;2023-05-24T05:36:10;12.80;1.00
14475;DHT22;7323;50.848;4.334;2023-05-24T05:38:36;12.90;1.00
14475;DHT22;7323;50.848;4.334;2023-05-24T05:41:02;13.00;1.00
14475;DHT22;7323;50.848;4.334;2023-05-24T05:43:27;13.20;1.00
14475;DHT22;7323;50.848;4.334;2023-05-24T05:45:54;12.80;1.00
14475;DHT22;7323;50.848;4.334;2023-05-24T05:48:20;12.60;1.00
14475;DHT22;7323;50.848;4.334;2023-05-24T05:50:46;12.50;1.00
14475;DHT22;7323;50.848;4.334;2023-05-24T05:53:13;12.30;1.00
14475;DHT22;7323;50.848;4.334;2023-05-24T05:55:39;12.20;1.80
14475;DHT22;7323;50.848;4.334;2023-05-24T05:58:05;12.30;3.80
14475;DHT22;7323;50.848;4.334;2023-05-24T06:00:30;12.30;1.00
14475;DHT22;7323;50.848;4.334;2023-05-24T06:02:56;12.50;1.00
14475;DHT22;7323;50.848;4.334;2023-05-24T06:05:22;12.50;1.00
14475;DHT22;7323;50.848;4.334;2023-05-24T06:07:47;12.50;1.00
14475;DHT22;7323;50.848;4.334;2023-05-24T06:10:13;12.40;1.00
14475;DHT22;7323;50.848;4.334;2023-05-24T06:12:39;12.30;1.00
14475;DHT22;7323;50.848;4.334;2023-05-24T06:15:07;12.40;1.00
14475;DHT22;7323;50.848;4.334;2023-05-24T06:17:33;12.40;1.00
14475;DHT22;7323;50.848;4.334;2023-05-24T06:19:59;12.50;1.00
14475;DHT22;7323;50.848;4.334;2023-05-24T06:22:25;12.60;1.00
14475;DHT22;7323;50.848;4.334;2023-05-24T06:24:54;12.60;1.00
14475;DHT22;7323;50.848;4.334;2023-05-24T06:27:19;12.60;1.00
14475;DHT22;7323;50.848;4.334;2023-05-24T06:29:45;12.60;1.00
14475;DHT22;7323;50.848;4.334;2023-05-24T06:32:11;12.70;1.00
14475;DHT22;7323;50.848;4.334;2023-05-24T06:34:37;12.80;1.00
14475;DHT22;7323;50.848;4.334;2023-05-24T06:37:02;13.00;1.00
14475;DHT22;7323;50.848;4.334;2023-05-24T06:39:28;12.80;1.00
14475;DHT22;7323;50.848;4.334;2023-05-24T06:41:54;12.80;1.00
14475;DHT22;7323;50.848;4.334;2023-05-24T06:44:20;12.80;1.00
14475;DHT22;7323;50.848;4.334;2023-05-24T06:46:47;13.00;1.00
14475;DHT22;7323;50.848;4.334;2023-05-24T06:49:13;12.90;1.00
14475;DHT22;7323;50.848;4.334;2023-05-24T06:51:41;13.00;1.00
14475;DHT22;7323;50.848;4.334;2023-05-24T06:54:07;13.10;1.00
14475;DHT22;7323;50.848;4.334;2023-05-24T06:56:35;13.10;1.00
14475;DHT22;7323;50.848;4.334;2023-05-24T06:59:01;13.10;1.00
14475;DHT22;7323;50.848;4.334;2023-05-24T07:01:29;12.90;1.00
14475;DHT22;7323;50.848;4.334;2023-05-24T07:03:56;13.00;1.00
14475;DHT22;7323;50.848;4.334;2023-05-24T07:06:22;13.20;1.00
14475;DHT22;7323;50.848;4.334;2023-05-24T07:08:48;13.10;1.00
14475;DHT22;7323;50.848;4.334;2023-05-24T07:11:13;13.30;1.00
14475;DHT22;7323;50.848;4.334;2023-05-24T07:13:40;13.50;1.00
14475;DHT22;7323;50.848;4.334;2023-05-24T07:16:06;13.30;1.00
14475;DHT22;7323;50.848;4.334;2023-05-24T07:18:31;13.20;1.00
14475;DHT22;7323;50.848;4.334;2023-05-24T07:20:57;13.10;1.00
14475;DHT22;7323;50.848;4.334;2023-05-24T07:23:24;13.10;1.00
14475;DHT22;7323;50.848;4.334;2023-05-24T07:25:49;13.10;1.00
14475;DHT22;7323;50.848;4.334;2023-05-24T07:28:16;13.20;1.00
14475;DHT22;7323;50.848;4.334;2023-05-24T07:30:44;13.30;1.00
14475;DHT22;7323;50.848;4.334;2023-05-24T07:33:10;13.30;1.00
14475;DHT22;7323;50.848;4.334;2023-05-24T07:35:39;13.20;1.00
14475;DHT22;7323;50.848;4.334;2023-05-24T07:38:08;13.30;1.00
14475;DHT22;7323;50.848;4.334;2023-05-24T07:40:33;13.30;1.00
14475;DHT22;7323;50.848;4.334;2023-05-24T07:42:59;13.40;1.00
14475;DHT22;7323;50.848;4.334;2023-05-24T07:45:25;13.30;1.00
14475;DHT22;7323;50.848;4.334;2023-05-24T07:47:51;13.30;1.00
14475;DHT22;7323;50.848;4.334;2023-05-24T07:50:17;13.30;1.00
14475;DHT22;7323;50.848;4.334;2023-05-24T07:52:42;13.30;1.00
14475;DHT22;7323;50.848;4.334;2023-05-24T07:55:10;13.30;1.00
14475;DHT22;7323;50.848;4.334;2023-05-24T07:57:48;13.50;1.00
14475;DHT22;7323;50.848;4.334;2023-05-24T08:00:15;13.50;1.00
14475;DHT22;7323;50.848;4.334;2023-05-24T08:02:54;13.60;1.00
14475;DHT22;7323;50.848;4.334;2023-05-24T08:05:24;13.50;1.00
14475;DHT22;7323;50.848;4.334;2023-05-24T08:07:50;13.60;1.00
14475;DHT22;7323;50.848;4.334;2023-05-24T08:10:17;13.70;1.00
14475;DHT22;7323;50.848;4.334;2023-05-24T08:12:43;13.60;1.00
14475;DHT22;7323;50.848;4.334;2023-05-24T08:15:08;13.80;1.00
14475;DHT22;7323;50.848;4.334;2023-05-24T08:17:35;13.80;1.00
14475;DHT22;7323;50.848;4.334;2023-05-24T08:20:01;14.50;1.00
14475;DHT22;7323;50.848;4.334;2023-05-24T08:22:34;14.60;1.00
14475;DHT22;7323;50.848;4.334;2023-05-24T08:25:00;14.60;1.00
14475;DHT22;7323;50.848;4.334;2023-05-24T08:27:26;14.50;1.00
14475;DHT22;7323;50.848;4.334;2023-05-24T08:29:55;14.40;1.00
14475;DHT22;7323;50.848;4.334;2023-05-24T08:32:20;14.00;1.00
14475;DHT22;7323;50.848;4.334;2023-05-24T08:34:46;14.10;1.00
14475;DHT22;7323;50.848;4.334;2023-05-24T08:37:12;14.30;1.00
14475;DHT22;7323;50.848;4.334;2023-05-24T08:39:44;14.40;1.00
14475;DHT22;7323;50.848;4.334;2023-05-24T08:42:10;14.60;1.00
14475;DHT22;7323;50.848;4.334;2023-05-24T08:44:58;14.70;1.00
14475;DHT22;7323;50.848;4.334;2023-05-24T08:47:28;15.00;1.00
14475;DHT22;7323;50.848;4.334;2023-05-24T08:49:54;15.10;1.00
14475;DHT22;7323;50.848;4.334;2023-05-24T08:52:21;15.00;1.00
14475;DHT22;7323;50.848;4.334;2023-05-24T08:54:48;14.80;1.00
14475;DHT22;7323;50.848;4.334;2023-05-24T08:57:15;14.90;1.00
14475;DHT22;7323;50.848;4.334;2023-05-24T08:59:41;14.90;1.00
14475;DHT22;7323;50.848;4.334;2023-05-24T09:02:14;14.70;1.00
14475;DHT22;7323;50.848;4.334;2023-05-24T09:04:40;14.70;1.00
14475;DHT22;7323;50.848;4.334;2023-05-24T09:07:09;14.80;1.00
14475;DHT22;7323;50.848;4.334;2023-05-24T09:09:41;14.90;1.00
14475;DHT22;7323;50.848;4.334;2023-05-24T09:12:10;14.80;1.00
14475;DHT22;7323;50.848;4.334;2023-05-24T09:14:44;14.70;1.00
14475;DHT22;7323;50.848;4.334;2023-05-24T09:17:11;14.80;1.00
14475;DHT22;7323;50.848;4.334;2023-05-24T09:19:43;15.00;1.00
14475;DHT22;7323;50.848;4.334;2023-05-24T09:22:11;15.10;1.00
14475;DHT22;7323;50.848;4.334;2023-05-24T09:24:45;15.10;1.00
14475;DHT22;7323;50.848;4.334;2023-05-24T09:27:14;15.00;1.00
14475;DHT22;7323;50.848;4.334;2023-05-24T09:29:43;14.90;1.00
14475;DHT22;7323;50.848;4.334;2023-05-24T09:32:11;15.00;1.00
14475;DHT22;7323;50.848;4.334;2023-05-24T09:34:39;15.10;1.00
14475;DHT22;7323;50.848;4.334;2023-05-24T09:37:09;15.50;1.00
14475;DHT22;7323;50.848;4.334;2023-05-24T09:39:40;15.50;1.00
14475;DHT22;7323;50.848;4.334;2023-05-24T09:42:14;15.60;1.00
14475;DHT22;7323;50.848;4.334;2023-05-24T09:44:40;15.60;1.00
14475;DHT22;7323;50.848;4.334;2023-05-24T09:47:06;15.50;1.00
14475;DHT22;7323;50.848;4.334;2023-05-24T09:49:37;15.30;1.00
14475;DHT22;7323;50.848;4.334;2023-05-24T09:52:03;15.30;1.00
14475;DHT22;7323;50.848;4.334;2023-05-24T09:54:31;15.30;1.00
14475;DHT22;7323;50.848;4.334;2023-05-24T09:56:59;15.50;1.00
14475;DHT22;7323;50.848;4.334;2023-05-24T09:59:27;15.40;1.00
14475;DHT22;7323;50.848;4.334;2023-05-24T10:02:07;15.40;99.90
14475;DHT22;7323;50.848;4.334;2023-05-24T10:04:34;15.30;1.00
14475;DHT22;7323;50.848;4.334;2023-05-24T10:07:01;15.50;1.00
14475;DHT22;7323;50.848;4.334;2023-05-24T10:09:28;15.70;1.00
14475;DHT22;7323;50.848;4.334;2023-05-24T10:12:04;15.80;1.00
14475;DHT22;7323;50.848;4.334;2023-05-24T10:14:35;15.80;1.00
14475;DHT22;7323;50.848;4.334;2023-05-24T10:17:03;16.10;99.90
14475;DHT22;7323;50.848;4.334;2023-05-24T10:19:33;16.30;99.90
14475;DHT22;7323;50.848;4.334;2023-05-24T10:22:00;16.10;99.90
14475;DHT22;7323;50.848;4.334;2023-05-24T10:24:34;15.70;99.90
14475;DHT22;7323;50.848;4.334;2023-05-24T10:27:05;15.50;99.90
14475;DHT22;7323;50.848;4.334;2023-05-24T10:30:22;15.80;1.00
14475;DHT22;7323;50.848;4.334;2023-05-24T10:32:41;16.10;99.90
14475;DHT22;7323;50.848;4.334;2023-05-24T10:35:08;16.10;99.90
14475;DHT22;7323;50.848;4.334;2023-05-24T10:37:37;16.20;99.90
14475;DHT22;7323;50.848;4.334;2023-05-24T10:40:03;16.40;99.90
14475;DHT22;7323;50.848;4.334;2023-05-24T10:42:31;16.50;99.90
14475;DHT22;7323;50.848;4.334;2023-05-24T10:44:57;16.50;99.90
14475;DHT22;7323;50.848;4.334;2023-05-24T10:47:29;16.50;99.90
14475;DHT22;7323;50.848;4.334;2023-05-24T10:49:57;16.50;99.90
14475;DHT22;7323;50.848;4.334;2023-05-24T10:52:34;16.60;99.90
14475;DHT22;7323;50.848;4.334;2023-05-24T10:55:08;16.70;99.90
14475;DHT22;7323;50.848;4.334;2023-05-24T10:57:35;16.60;99.90
14475;DHT22;7323;50.848;4.334;2023-05-24T11:03:08;16.80;99.90
14475;DHT22;7323;50.848;4.334;2023-05-24T11:05:34;16.70;99.90
14475;DHT22;7323;50.848;4.334;2023-05-24T11:08:01;16.50;99.90
14475;DHT22;7323;50.848;4.334;2023-05-24T11:10:33;16.90;99.90
14475;DHT22;7323;50.848;4.334;2023-05-24T11:13:00;16.90;99.90
14475;DHT22;7323;50.848;4.334;2023-05-24T11:15:28;17.00;99.90
14475;DHT22;7323;50.848;4.334;2023-05-24T11:20:43;17.10;1.00
14475;DHT22;7323;50.848;4.334;2023-05-24T11:23:13;17.10;1.00
14475;DHT22;7323;50.848;4.334;2023-05-24T11:25:40;16.90;99.90
14475;DHT22;7323;50.848;4.334;2023-05-24T11:28:07;17.00;99.90
14475;DHT22;7323;50.848;4.334;2023-05-24T11:33:22;17.10;1.00
14475;DHT22;7323;50.848;4.334;2023-05-24T11:35:53;17.30;1.00
14475;DHT22;7323;50.848;4.334;2023-05-24T11:38:21;17.50;99.90
14475;DHT22;7323;50.848;4.334;2023-05-24T11:40:48;17.40;99.90
14475;DHT22;7323;50.848;4.334;2023-05-24T11:43:16;17.40;1.00
14475;DHT22;7323;50.848;4.334;2023-05-24T11:45:49;17.30;1.00
14475;DHT22;7323;50.848;4.334;2023-05-24T11:48:18;17.50;99.90
14475;DHT22;7323;50.848;4.334;2023-05-24T11:50:46;17.50;1.00
14475;DHT22;7323;50.848;4.334;2023-05-24T11:53:15;17.50;1.00
14475;DHT22;7323;50.848;4.334;2023-05-24T11:55:41;17.60;1.00
14475;DHT22;7323;50.848;4.334;2023-05-24T12:00:50;17.70;1.00
14475;DHT22;7323;50.848;4.334;2023-05-24T12:03:16;17.60;1.00
14475;DHT22;7323;50.848;4.334;2023-05-24T12:05:42;17.60;1.00
14475;DHT22;7323;50.848;4.334;2023-05-24T12:08:10;17.50;1.00
14475;DHT22;7323;50.848;4.334;2023-05-24T12:10:38;17.30;1.00
14475;DHT22;7323;50.848;4.334;2023-05-24T12:13:05;17.30;9.40
14475;DHT22;7323;50.848;4.334;2023-05-24T12:15:32;17.20;99.90
14475;DHT22;7323;50.848;4.334;2023-05-24T12:17:58;17.20;1.00
14475;DHT22;7323;50.848;4.334;2023-05-24T12:20:27;17.30;99.90
14475;DHT22;7323;50.848;4.334;2023-05-24T12:22:54;17.20;99.90
14475;DHT22;7323;50.848;4.334;2023-05-24T12:25:22;17.40;99.90
14475;DHT22;7323;50.848;4.334;2023-05-24T12:27:55;17.40;1.00
14475;DHT22;7323;50.848;4.334;2023-05-24T12:30:22;17.70;99.90
14475;DHT22;7323;50.848;4.334;2023-05-24T12:32:49;18.00;99.90
14475;DHT22;7323;50.848;4.334;2023-05-24T12:35:16;17.80;82.50
14475;DHT22;7323;50.848;4.334;2023-05-24T12:37:44;17.70;99.90
14475;DHT22;7323;50.848;4.334;2023-05-24T12:40:20;17.60;99.90
14475;DHT22;7323;50.848;4.334;2023-05-24T12:42:52;17.50;99.90
14475;DHT22;7323;50.848;4.334;2023-05-24T12:45:21;17.30;99.90
14475;DHT22;7323;50.848;4.334;2023-05-24T12:47:52;17.30;1.00
14475;DHT22;7323;50.848;4.334;2023-05-24T12:50:19;17.40;1.00
14475;DHT22;7323;50.848;4.334;2023-05-24T12:52:46;17.50;99.90
14475;DHT22;7323;50.848;4.334;2023-05-24T12:55:13;17.60;99.90
14475;DHT22;7323;50.848;4.334;2023-05-24T12:57:43;17.40;99.90
14475;DHT22;7323;50.848;4.334;2023-05-24T13:00:10;17.50;99.90
14475;DHT22;7323;50.848;4.334;2023-05-24T13:02:36;17.60;99.90
14475;DHT22;7323;50.848;4.334;2023-05-24T13:05:03;17.80;99.90
14475;DHT22;7323;50.848;4.334;2023-05-24T13:07:29;17.70;99.90
14475;DHT22;7323;50.848;4.334;2023-05-24T13:09:56;17.40;99.90
14475;DHT22;7323;50.848;4.334;2023-05-24T13:12:23;17.40;99.90
14475;DHT22;7323;50.848;4.334;2023-05-24T13:14:49;17.30;99.90
14475;DHT22;7323;50.848;4.334;2023-05-24T13:17:15;17.40;99.90
14475;DHT22;7323;50.848;4.334;2023-05-24T13:19:42;17.50;99.90
14475;DHT22;7323;50.848;4.334;2023-05-24T13:22:08;17.60;99.90
14475;DHT22;7323;50.848;4.334;2023-05-24T13:24:33;17.80;99.90
14475;DHT22;7323;50.848;4.334;2023-05-24T13:27:00;17.90;1.00
14475;DHT22;7323;50.848;4.334;2023-05-24T13:29:28;17.80;1.00
14475;DHT22;7323;50.848;4.334;2023-05-24T13:31:55;17.80;30.80
14475;DHT22;7323;50.848;4.334;2023-05-24T13:34:21;17.80;1.00
14475;DHT22;7323;50.848;4.334;2023-05-24T13:36:50;17.60;1.00
14475;DHT22;7323;50.848;4.334;2023-05-24T13:39:17;17.50;99.90
14475;DHT22;7323;50.848;4.334;2023-05-24T13:41:44;17.60;99.90
14475;DHT22;7323;50.848;4.334;2023-05-24T13:44:11;17.60;99.90
14475;DHT22;7323;50.848;4.334;2023-05-24T13:46:38;17.70;99.90
14475;DHT22;7323;50.848;4.334;2023-05-24T13:49:04;18.00;47.30
14475;DHT22;7323;50.848;4.334;2023-05-24T13:51:30;18.10;1.00
14475;DHT22;7323;50.848;4.334;2023-05-24T13:54:02;18.20;1.00
14475;DHT22;7323;50.848;4.334;2023-05-24T13:57:03;18.20;1.00
14475;DHT22;7323;50.848;4.334;2023-05-24T13:59:29;18.10;1.00
14475;DHT22;7323;50.848;4.334;2023-05-24T14:01:55;18.10;1.00
14475;DHT22;7323;50.848;4.334;2023-05-24T14:04:20;17.90;14.20
14475;DHT22;7323;50.848;4.334;2023-05-24T14:06:46;18.00;1.00
14475;DHT22;7323;50.848;4.334;2023-05-24T14:09:13;17.90;1.00
14475;DHT22;7323;50.848;4.334;2023-05-24T14:11:39;17.90;70.40
14475;DHT22;7323;50.848;4.334;2023-05-24T14:14:05;17.80;68.30
14475;DHT22;7323;50.848;4.334;2023-05-24T14:16:31;17.80;99.90
14475;DHT22;7323;50.848;4.334;2023-05-24T14:18:57;17.80;99.90
14475;DHT22;7323;50.848;4.334;2023-05-24T14:21:23;17.60;99.90
14475;DHT22;7323;50.848;4.334;2023-05-24T14:23:51;17.50;99.90
14475;DHT22;7323;50.848;4.334;2023-05-24T14:26:17;17.50;99.90
14475;DHT22;7323;50.848;4.334;2023-05-24T14:28:43;17.40;1.00
14475;DHT22;7323;50.848;4.334;2023-05-24T14:31:08;17.40;99.90
14475;DHT22;7323;50.848;4.334;2023-05-24T14:33:34;17.40;1.00
14475;DHT22;7323;50.848;4.334;2023-05-24T14:36:00;17.40;1.00
14475;DHT22;7323;50.848;4.334;2023-05-24T14:38:26;17.20;1.00
14475;DHT22;7323;50.848;4.334;2023-05-24T14:40:52;17.20;1.00
14475;DHT22;7323;50.848;4.334;2023-05-24T14:43:18;17.20;1.00
14475;DHT22;7323;50.848;4.334;2023-05-24T14:45:43;17.10;1.00
14475;DHT22;7323;50.848;4.334;2023-05-24T14:48:09;17.20;1.00
14475;DHT22;7323;50.848;4.334;2023-05-24T14:50:36;17.00;1.00
14475;DHT22;7323;50.848;4.334;2023-05-24T14:53:02;17.10;1.00
14475;DHT22;7323;50.848;4.334;2023-05-24T14:55:35;17.20;1.00
14475;DHT22;7323;50.848;4.334;2023-05-24T14:58:01;17.30;1.00
14475;DHT22;7323;50.848;4.334;2023-05-24T15:00:27;17.30;1.00
14475;DHT22;7323;50.848;4.334;2023-05-24T15:02:53;17.20;5.40
14475;DHT22;7323;50.848;4.334;2023-05-24T15:05:19;17.20;57.70
14475;DHT22;7323;50.848;4.334;2023-05-24T15:07:45;17.20;23.50
14475;DHT22;7323;50.848;4.334;2023-05-24T15:10:11;17.20;90.80
14475;DHT22;7323;50.848;4.334;2023-05-24T15:12:37;17.20;99.10
14475;DHT22;7323;50.848;4.334;2023-05-24T15:15:03;17.40;99.90
14475;DHT22;7323;50.848;4.334;2023-05-24T15:17:30;17.40;99.90
14475;DHT22;7323;50.848;4.334;2023-05-24T15:19:56;17.50;1.00
14475;DHT22;7323;50.848;4.334;2023-05-24T15:22:24;17.40;1.00
14475;DHT22;7323;50.848;4.334;2023-05-24T15:24:51;17.40;14.30
14475;DHT22;7323;50.848;4.334;2023-05-24T15:27:17;17.30;27.80
14475;DHT22;7323;50.848;4.334;2023-05-24T15:29:43;17.40;45.20
14475;DHT22;7323;50.848;4.334;2023-05-24T15:32:09;17.30;1.00
14475;DHT22;7323;50.848;4.334;2023-05-24T15:34:36;17.20;37.40
14475;DHT22;7323;50.848;4.334;2023-05-24T15:37:04;17.20;97.90
14475;DHT22;7323;50.848;4.334;2023-05-24T15:39:31;17.20;99.90
14475;DHT22;7323;50.848;4.334;2023-05-24T15:41:57;17.30;99.90
14475;DHT22;7323;50.848;4.334;2023-05-24T15:44:25;17.30;95.70
14475;DHT22;7323;50.848;4.334;2023-05-24T15:46:53;17.30;99.90
14475;DHT22;7323;50.848;4.334;2023-05-24T15:49:18;17.40;56.70
14475;DHT22;7323;50.848;4.334;2023-05-24T15:51:45;17.40;64.40
14475;DHT22;7323;50.848;4.334;2023-05-24T15:54:12;17.40;72.80
14475;DHT22;7323;50.848;4.334;2023-05-24T15:56:38;17.50;99.90
14475;DHT22;7323;50.848;4.334;2023-05-24T15:59:04;17.40;66.40
14475;DHT22;7323;50.848;4.334;2023-05-24T16:01:30;17.30;63.90
14475;DHT22;7323;50.848;4.334;2023-05-24T16:03:56;17.40;99.90
14475;DHT22;7323;50.848;4.334;2023-05-24T16:06:21;17.40;99.90
14475;DHT22;7323;50.848;4.334;2023-05-24T16:08:48;17.40;70.20
14475;DHT22;7323;50.848;4.334;2023-05-24T16:11:15;17.40;99.90
14475;DHT22;7323;50.848;4.334;2023-05-24T16:13:42;17.50;99.90
14475;DHT22;7323;50.848;4.334;2023-05-24T16:16:08;17.60;12.70
14475;DHT22;7323;50.848;4.334;2023-05-24T16:18:33;17.40;14.40
14475;DHT22;7323;50.848;4.334;2023-05-24T16:21:01;17.40;52.70